Time;durP1;ratioP1;P1;durP2;ratioP2;P2;SDS_P1;SDS_P2;PMS_P1;PMS_P2;Temp;Humidity;BMP_temperature;BMP_pressure;BME280_temperature;BME280_humidity;BME280_pressure;Samples;Min_cycle;Max_cycle;Signal;HPM_P1;HPM_P2
2022/05/17 00:00:53;;;;;;;8.35;2.00;;;15.80;99.90;;;;;;5092341;28;20407;-82
2022/05/17 00:03:20;;;;;;;6.65;2.10;;;16.00;99.90;;;;;;5092453;28;20864;-83
2022/05/17 00:05:47;;;;;;;8.48;2.20;;;16.00;99.90;;;;;;5092298;28;20459;-84
2022/05/17 00:08:16;;;;;;;6.68;2.15;;;16.20;99.90;;;;;;5092214;28;20724;-84
2022/05/17 00:10:44;;;;;;;6.30;1.92;;;16.30;99.90;;;;;;5092308;28;20372;-83
2022/05/17 00:13:11;;;;;;;8.27;2.30;;;16.20;99.90;;;;;;5092122;28;20439;-83
2022/05/17 00:15:46;;;;;;;8.32;2.03;;;16.10;99.90;;;;;;5092236;28;20394;-83
2022/05/17 00:18:14;;;;;;;6.85;1.95;;;16.20;99.90;;;;;;5092277;28;20400;-85
2022/05/17 00:20:42;;;;;;;5.10;1.67;;;16.30;99.90;;;;;;5092166;28;20430;-82
2022/05/17 00:23:11;;;;;;;5.80;1.90;;;16.40;99.90;;;;;;5092168;28;20437;-85
2022/05/17 00:25:38;;;;;;;6.88;1.85;;;16.60;99.90;;;;;;5092041;28;20372;-84
2022/05/17 00:28:05;;;;;;;6.90;1.90;;;16.60;99.90;;;;;;5091683;28;20388;-84
2022/05/17 00:30:35;;;;;;;6.17;1.80;;;16.70;99.90;;;;;;5091609;28;20373;-82
2022/05/17 00:33:02;;;;;;;3.40;1.40;;;16.80;99.90;;;;;;5091836;28;20368;-82
2022/05/17 00:35:29;;;;;;;4.43;1.30;;;17.00;99.90;;;;;;5091979;28;20361;-83
2022/05/17 00:37:56;;;;;;;4.28;1.50;;;17.20;99.90;;;;;;5091816;28;20468;-83
2022/05/17 00:40:23;;;;;;;5.50;1.50;;;17.30;99.90;;;;;;5091705;28;20865;-83
2022/05/17 00:42:50;;;;;;;4.65;1.40;;;17.40;99.90;;;;;;5092087;28;20461;-82
2022/05/17 00:45:17;;;;;;;3.97;1.17;;;17.40;99.90;;;;;;5092144;28;20372;-85
2022/05/17 00:47:49;;;;;;;3.07;1.10;;;17.40;99.00;;;;;;5092352;28;20376;-83
2022/05/17 00:50:31;;;;;;;4.60;1.00;;;17.50;99.20;;;;;;5093104;28;20574;-84
2022/05/17 00:53:09;;;;;;;3.15;1.00;;;17.60;97.60;;;;;;5090636;28;20372;-83
2022/05/17 00:55:41;;;;;;;3.05;0.95;;;17.60;97.90;;;;;;5091844;28;20369;-85
2022/05/17 00:58:31;;;;;;;3.92;1.10;;;17.60;97.40;;;;;;5091524;28;20455;-85
2022/05/17 01:01:10;;;;;;;5.57;1.35;;;17.70;98.00;;;;;;5084986;28;20479;-83
2022/05/17 01:03:47;;;;;;;4.07;1.10;;;17.80;97.00;;;;;;5091513;28;20390;-86
2022/05/17 01:06:17;;;;;;;3.15;1.10;;;17.70;97.70;;;;;;5091680;28;20349;-86
2022/05/17 01:08:44;;;;;;;3.00;1.10;;;17.90;96.10;;;;;;5091105;28;20404;-86
2022/05/17 01:11:11;;;;;;;3.50;1.10;;;18.10;96.60;;;;;;5091446;28;20435;-83
2022/05/17 01:16:27;;;;;;;2.77;1.10;;;18.10;95.10;;;;;;5090967;28;20736;-84
2022/05/17 01:18:55;;;;;;;5.05;0.90;;;18.30;95.20;;;;;;5091085;28;20395;-85
2022/05/17 01:21:22;;;;;;;3.72;1.00;;;18.60;93.80;;;;;;5091075;28;20936;-84
2022/05/17 01:23:49;;;;;;;3.72;1.08;;;18.60;91.80;;;;;;5091044;28;20380;-83
2022/05/17 01:26:20;;;;;;;2.35;0.90;;;18.50;91.20;;;;;;5090633;28;20365;-85
2022/05/17 01:28:48;;;;;;;3.58;1.00;;;18.50;91.60;;;;;;5090723;28;20376;-84
2022/05/17 01:31:16;;;;;;;3.42;0.95;;;18.70;92.10;;;;;;5090550;28;20404;-85
2022/05/17 01:33:43;;;;;;;4.50;1.13;;;18.60;92.90;;;;;;5090625;28;20392;-86
2022/05/17 01:36:12;;;;;;;2.45;0.80;;;18.50;90.70;;;;;;5090530;28;20426;-84
2022/05/17 01:38:40;;;;;;;3.05;0.90;;;18.30;89.90;;;;;;5090689;28;20376;-84
2022/05/17 01:41:07;;;;;;;2.65;1.13;;;18.30;90.30;;;;;;5090391;28;20461;-83
2022/05/17 01:43:34;;;;;;;5.25;1.05;;;18.30;90.80;;;;;;5090509;28;20388;-85
2022/05/17 01:46:08;;;;;;;2.70;0.90;;;18.30;91.30;;;;;;5090534;28;20376;-83
2022/05/17 01:48:40;;;;;;;2.53;1.10;;;18.30;90.40;;;;;;5090627;28;20864;-85
2022/05/17 01:51:09;;;;;;;4.07;1.10;;;18.50;91.10;;;;;;5090553;28;20369;-83
2022/05/17 01:53:36;;;;;;;3.33;1.10;;;18.80;89.10;;;;;;5090223;28;20474;-83
2022/05/17 01:56:09;;;;;;;5.10;1.20;;;18.90;89.70;;;;;;5090168;28;20956;-82
2022/05/17 01:58:37;;;;;;;3.72;1.05;;;19.00;89.20;;;;;;5090319;28;20378;-83
2022/05/17 02:01:06;;;;;;;3.23;1.10;;;18.80;90.10;;;;;;5090210;28;20404;-86
2022/05/17 02:03:34;;;;;;;2.60;0.93;;;18.80;91.30;;;;;;5088582;28;20736;-84
2022/05/17 02:06:02;;;;;;;2.85;1.00;;;19.00;90.00;;;;;;5089786;28;20376;-83
2022/05/17 02:08:29;;;;;;;2.15;0.90;;;19.00;88.50;;;;;;5090041;28;20376;-82
2022/05/17 02:10:57;;;;;;;2.47;0.80;;;19.10;89.90;;;;;;5089808;28;20422;-82
2022/05/17 02:13:24;;;;;;;3.42;0.93;;;19.20;82.80;;;;;;5089340;28;20408;-81
2022/05/17 02:15:51;;;;;;;4.45;1.10;;;19.10;83.30;;;;;;5090066;28;20371;-85
2022/05/17 02:18:18;;;;;;;3.72;0.80;;;19.10;84.00;;;;;;5090224;28;20369;-83
2022/05/17 02:20:45;;;;;;;2.30;0.80;;;18.90;82.00;;;;;;5089648;28;20392;-82
2022/05/17 02:23:12;;;;;;;2.72;0.82;;;18.80;82.70;;;;;;5089676;28;20364;-83
2022/05/17 02:25:39;;;;;;;1.55;0.70;;;18.80;84.70;;;;;;5089586;28;20441;-83
2022/05/17 02:28:10;;;;;;;3.40;1.00;;;18.80;83.70;;;;;;5089643;28;20375;-83
2022/05/17 02:30:39;;;;;;;3.42;1.00;;;18.80;82.40;;;;;;5088029;28;20397;-83
2022/05/17 02:33:06;;;;;;;3.00;0.90;;;19.00;84.50;;;;;;5089762;28;20429;-83
2022/05/17 02:35:33;;;;;;;2.42;0.95;;;19.20;80.80;;;;;;5089426;28;20875;-82
2022/05/17 02:38:00;;;;;;;2.25;0.95;;;19.20;79.20;;;;;;5089377;28;20372;-84
2022/05/17 02:40:28;;;;;;;2.40;0.90;;;19.30;80.30;;;;;;5089258;28;20766;-82
2022/05/17 02:42:54;;;;;;;3.17;0.80;;;19.30;80.10;;;;;;5089240;28;20380;-83
2022/05/17 02:45:22;;;;;;;3.47;0.90;;;19.30;80.40;;;;;;5089331;28;20376;-83
2022/05/17 02:47:49;;;;;;;5.57;1.00;;;19.30;84.80;;;;;;5089149;28;20376;-83
2022/05/17 02:50:16;;;;;;;1.95;0.80;;;19.50;84.60;;;;;;5089311;28;20745;-85
2022/05/17 02:52:43;;;;;;;2.80;0.80;;;19.60;80.80;;;;;;5089415;28;20376;-83
2022/05/17 02:55:11;;;;;;;3.47;0.80;;;19.70;77.10;;;;;;5088979;28;20465;-81
2022/05/17 02:57:39;;;;;;;2.50;0.73;;;19.80;80.00;;;;;;5089054;28;20431;-82
2022/05/17 03:00:10;;;;;;;2.47;0.75;;;20.00;77.20;;;;;;5089434;28;20368;-83
2022/05/17 03:02:37;;;;;;;2.95;0.80;;;20.30;77.00;;;;;;5088866;28;20400;-84
2022/05/17 03:05:04;;;;;;;2.83;0.80;;;20.30;75.50;;;;;;5089156;28;20724;-81
2022/05/17 03:07:31;;;;;;;2.17;0.80;;;20.20;76.60;;;;;;5089001;28;20403;-83
2022/05/17 03:09:58;;;;;;;1.90;0.82;;;20.30;74.80;;;;;;5088928;28;20376;-82
2022/05/17 03:12:25;;;;;;;1.95;0.77;;;20.40;74.20;;;;;;5088730;28;20373;-82
2022/05/17 03:14:52;;;;;;;3.03;0.90;;;20.40;74.50;;;;;;5088745;28;20882;-83
2022/05/17 03:17:19;;;;;;;2.28;0.80;;;20.40;77.40;;;;;;5088795;28;20444;-82
2022/05/17 03:19:46;;;;;;;2.30;0.98;;;20.40;75.80;;;;;;5088704;28;20371;-83
2022/05/17 03:22:13;;;;;;;2.47;0.80;;;20.40;75.20;;;;;;5088470;28;20510;-82
2022/05/17 03:24:40;;;;;;;2.30;0.93;;;20.50;75.70;;;;;;5088626;28;20390;-81
2022/05/17 03:27:11;;;;;;;2.42;0.90;;;20.50;72.90;;;;;;5088501;28;20746;-84
2022/05/17 03:29:38;;;;;;;1.90;0.85;;;20.50;73.10;;;;;;5088906;28;20373;-85
2022/05/17 03:32:05;;;;;;;2.33;0.90;;;20.70;74.10;;;;;;5089077;28;20433;-83
2022/05/17 03:34:32;;;;;;;2.03;0.90;;;20.80;72.20;;;;;;5088632;28;20372;-84
2022/05/17 03:36:59;;;;;;;2.40;0.90;;;20.90;72.20;;;;;;5088337;28;20372;-82
2022/05/17 03:39:26;;;;;;;1.90;0.80;;;20.90;72.70;;;;;;5088638;28;20375;-84
2022/05/17 03:41:53;;;;;;;2.63;0.88;;;21.20;69.70;;;;;;5088561;28;20758;-87
2022/05/17 03:44:20;;;;;;;3.40;0.90;;;21.90;65.40;;;;;;5088390;28;20883;-82
2022/05/17 03:46:47;;;;;;;1.25;0.70;;;21.80;66.70;;;;;;5088367;28;20381;-82
2022/05/17 03:49:14;;;;;;;3.83;0.90;;;21.30;66.90;;;;;;5088425;28;20364;-83
2022/05/17 03:51:41;;;;;;;3.45;0.80;;;20.90;69.50;;;;;;5088449;28;20891;-82
2022/05/17 03:54:08;;;;;;;3.22;0.80;;;20.90;69.50;;;;;;5088231;28;20364;-84
2022/05/17 03:56:35;;;;;;;1.70;0.88;;;20.80;70.20;;;;;;5088694;28;20404;-82
2022/05/17 03:59:02;;;;;;;1.42;0.80;;;20.80;67.90;;;;;;5087009;28;20397;-83
2022/05/17 04:01:29;;;;;;;3.45;0.73;;;20.80;69.50;;;;;;5088399;28;20755;-83
2022/05/17 04:03:56;;;;;;;2.75;0.80;;;20.70;65.80;;;;;;5088475;28;20460;-83
2022/05/17 04:06:23;;;;;;;2.35;0.80;;;20.60;66.70;;;;;;5088159;28;20698;-82
2022/05/17 04:08:50;;;;;;;3.50;0.80;;;20.50;66.80;;;;;;5088213;28;20867;-82
2022/05/17 04:11:17;;;;;;;1.73;0.80;;;20.50;65.50;;;;;;5088553;28;20387;-82
2022/05/17 04:13:44;;;;;;;2.13;0.80;;;20.60;66.60;;;;;;5088280;28;20369;-82
2022/05/17 04:16:11;;;;;;;1.90;0.70;;;20.70;65.30;;;;;;5088283;28;20404;-82
2022/05/17 04:18:39;;;;;;;2.13;0.80;;;20.70;65.50;;;;;;5088670;28;20856;-82
2022/05/17 04:21:07;;;;;;;2.95;1.00;;;20.60;66.00;;;;;;5088309;28;20395;-84
2022/05/17 04:23:34;;;;;;;3.00;1.00;;;20.50;65.50;;;;;;5088497;28;20373;-85
2022/05/17 04:26:01;;;;;;;1.55;0.80;;;20.40;66.10;;;;;;5088163;28;20443;-83
2022/05/17 04:28:28;;;;;;;3.22;0.85;;;20.50;65.50;;;;;;5088351;28;20807;-82
2022/05/17 04:30:55;;;;;;;2.67;0.90;;;20.50;66.00;;;;;;5087983;28;20384;-82
2022/05/17 04:33:24;;;;;;;2.55;0.93;;;20.50;67.70;;;;;;5087961;28;20743;-84
2022/05/17 04:35:51;;;;;;;4.85;0.90;;;20.70;67.50;;;;;;5088211;28;20406;-81
2022/05/17 04:38:18;;;;;;;1.88;0.70;;;20.70;66.60;;;;;;5091579;28;20851;-82
2022/05/17 04:40:45;;;;;;;1.88;0.75;;;20.70;64.40;;;;;;5090628;28;20380;-84
2022/05/17 04:43:12;;;;;;;2.97;0.80;;;20.60;65.40;;;;;;5091801;28;20380;-82
2022/05/17 04:45:41;;;;;;;3.00;0.70;;;20.70;65.30;;;;;;5091953;28;20866;-82
2022/05/17 04:48:08;;;;;;;2.50;0.80;;;21.00;65.20;;;;;;5091732;28;20380;-82
2022/05/17 04:50:36;;;;;;;1.77;0.80;;;21.60;62.80;;;;;;5091721;28;20778;-83
2022/05/17 04:53:03;;;;;;;2.50;0.75;;;22.00;61.80;;;;;;5091966;28;20389;-82
2022/05/17 04:55:31;;;;;;;1.75;0.80;;;22.50;62.10;;;;;;5091779;28;20368;-85
2022/05/17 04:57:58;;;;;;;2.22;0.82;;;23.00;59.10;;;;;;5091745;28;20376;-84
2022/05/17 05:00:26;;;;;;;2.60;0.85;;;23.00;57.20;;;;;;5091331;28;20368;-85
2022/05/17 05:02:54;;;;;;;4.18;1.10;;;22.80;57.70;;;;;;5091848;28;20411;-84
2022/05/17 05:05:23;;;;;;;3.70;0.98;;;22.30;59.80;;;;;;5091577;28;20371;-82
2022/05/17 05:07:50;;;;;;;2.63;0.63;;;21.90;61.60;;;;;;5091157;28;20373;-83
2022/05/17 05:10:18;;;;;;;1.60;0.60;;;21.80;62.60;;;;;;5091150;28;20449;-85
2022/05/17 05:12:45;;;;;;;3.08;0.90;;;21.80;63.40;;;;;;5091068;28;20376;-84
2022/05/17 05:15:12;;;;;;;2.53;0.90;;;21.90;61.90;;;;;;5090944;28;20844;-82
2022/05/17 05:17:40;;;;;;;4.75;0.80;;;21.70;62.50;;;;;;5091070;28;20747;-82
2022/05/17 05:20:10;;;;;;;3.05;0.85;;;21.60;62.50;;;;;;5090821;28;20372;-82
2022/05/17 05:22:38;;;;;;;2.72;0.80;;;21.50;62.10;;;;;;5090930;28;20400;-82
2022/05/17 05:25:06;;;;;;;1.83;0.70;;;21.40;62.20;;;;;;5090901;28;20434;-85
2022/05/17 05:27:35;;;;;;;4.10;0.90;;;21.40;61.80;;;;;;5091002;28;20372;-82
2022/05/17 05:30:04;;;;;;;2.63;0.90;;;21.40;62.60;;;;;;5090819;28;20416;-82
2022/05/17 05:32:31;;;;;;;1.52;0.77;;;21.40;61.10;;;;;;5090783;28;20860;-82
2022/05/17 05:34:58;;;;;;;3.13;0.90;;;21.10;62.00;;;;;;5090802;28;20844;-84
2022/05/17 05:37:25;;;;;;;2.50;0.90;;;21.00;63.30;;;;;;5090689;28;20899;-83
2022/05/17 05:39:52;;;;;;;5.20;0.90;;;20.80;63.40;;;;;;5090901;28;20357;-82
2022/05/17 05:42:19;;;;;;;3.10;0.80;;;20.60;63.70;;;;;;5090737;28;20420;-82
2022/05/17 05:44:46;;;;;;;2.20;0.80;;;20.50;66.60;;;;;;5090787;28;20497;-83
2022/05/17 05:47:13;;;;;;;2.50;0.82;;;20.50;64.80;;;;;;5090571;28;20404;-82
2022/05/17 05:49:40;;;;;;;3.28;0.77;;;20.40;64.40;;;;;;5091045;28;20372;-82
2022/05/17 05:52:07;;;;;;;4.22;0.90;;;20.30;63.60;;;;;;5090856;28;20404;-87
2022/05/17 05:54:34;;;;;;;7.30;0.80;;;20.20;63.30;;;;;;5092346;28;20425;-82
2022/05/17 05:57:02;;;;;;;3.85;0.90;;;20.20;65.00;;;;;;5092474;28;20372;-82
2022/05/17 05:59:31;;;;;;;3.38;0.85;;;20.00;67.20;;;;;;5089695;28;20474;-81
2022/05/17 06:01:58;;;;;;;2.33;0.80;;;20.00;66.30;;;;;;5090018;28;20495;-85
2022/05/17 06:04:28;;;;;;;6.70;1.00;;;19.90;66.60;;;;;;5090118;28;20400;-82
2022/05/17 06:06:57;;;;;;;2.13;0.82;;;19.90;66.80;;;;;;5090113;28;20396;-82
2022/05/17 06:09:25;;;;;;;2.60;0.90;;;19.80;66.50;;;;;;5090563;28;20372;-82
2022/05/17 06:11:52;;;;;;;4.45;0.90;;;19.80;67.70;;;;;;5089923;28;20791;-81
2022/05/17 06:14:23;;;;;;;10.43;1.02;;;19.70;67.20;;;;;;5090297;28;20368;-84
2022/05/17 06:16:51;;;;;;;4.97;0.80;;;19.60;67.30;;;;;;5090234;28;20391;-82
2022/05/17 06:19:19;;;;;;;3.63;0.80;;;19.50;68.90;;;;;;5089787;28;20360;-81
2022/05/17 06:21:46;;;;;;;6.18;1.10;;;19.50;68.70;;;;;;5089752;28;20403;-81
2022/05/17 06:24:13;;;;;;;12.57;1.10;;;19.50;69.20;;;;;;5089897;28;20391;-82
2022/05/17 06:26:40;;;;;;;11.60;1.40;;;19.40;69.00;;;;;;5089572;28;20394;-82
2022/05/17 06:29:07;;;;;;;9.02;1.05;;;19.30;69.90;;;;;;5089908;28;20402;-83
2022/05/17 06:31:34;;;;;;;10.03;1.20;;;19.20;71.20;;;;;;5089867;28;20496;-82
2022/05/17 06:34:01;;;;;;;17.10;1.65;;;19.10;70.90;;;;;;5089946;28;20748;-85
2022/05/17 06:36:28;;;;;;;13.38;1.50;;;19.00;70.80;;;;;;5089580;28;20368;-84
2022/05/17 06:38:55;;;;;;;11.00;1.30;;;18.80;70.30;;;;;;5089642;28;20388;-82
2022/05/17 06:41:22;;;;;;;12.18;1.40;;;18.70;71.00;;;;;;5090278;28;20396;-84
2022/05/17 06:43:49;;;;;;;18.42;1.90;;;18.60;71.60;;;;;;5089907;28;20739;-83
2022/05/17 06:46:16;;;;;;;16.98;1.70;;;18.60;72.70;;;;;;5089300;28;20454;-81
2022/05/17 06:48:43;;;;;;;15.85;1.60;;;18.60;72.80;;;;;;5089443;28;20847;-83
2022/05/17 06:51:11;;;;;;;15.07;1.80;;;18.50;73.60;;;;;;5089170;28;20372;-81
2022/05/17 06:53:37;;;;;;;14.00;1.53;;;18.30;74.60;;;;;;5089499;28;20758;-80
2022/05/17 06:56:08;;;;;;;15.38;1.80;;;18.10;75.60;;;;;;5089284;28;20369;-80
2022/05/17 06:58:35;;;;;;;10.27;1.67;;;18.00;76.50;;;;;;5088975;28;20438;-84
2022/05/17 07:01:02;;;;;;;9.60;1.55;;;17.80;77.60;;;;;;5088710;28;20388;-84
2022/05/17 07:03:29;;;;;;;14.15;1.98;;;17.70;77.20;;;;;;5089197;28;20386;-84
2022/05/17 07:05:56;;;;;;;16.08;1.70;;;17.50;78.10;;;;;;5089843;28;20393;-83
2022/05/17 07:08:23;;;;;;;14.73;1.67;;;17.30;80.40;;;;;;5089134;28;20880;-83
2022/05/17 07:14:25;;;;;;;15.13;1.90;;;17.00;86.60;;;;;;5089737;28;20396;-82
2022/05/17 07:16:52;;;;;;;12.00;2.13;;;16.80;89.90;;;;;;5029866;28;20771;-83
2022/05/17 07:19:27;;;;;;;9.95;1.90;;;16.60;90.50;;;;;;5046583;28;20473;-81
2022/05/17 07:21:54;;;;;;;15.38;2.00;;;16.50;91.30;;;;;;5046845;28;20879;-82
2022/05/17 07:27:42;;;;;;;13.48;2.15;;;16.10;95.50;;;;;;5046609;28;20398;-82
2022/05/17 07:30:14;;;;;;;15.88;2.15;;;15.90;97.20;;;;;;5045973;28;20483;-83
2022/05/17 07:32:40;;;;;;;10.25;2.00;;;15.80;98.70;;;;;;5029687;28;20534;-83
2022/05/17 07:35:08;;;;;;;10.63;2.20;;;15.60;99.60;;;;;;5046663;28;20388;-82
2022/05/17 07:37:36;;;;;;;17.40;4.00;;;15.50;99.90;;;;;;5030316;28;20391;-88
2022/05/17 07:40:05;;;;;;;12.05;4.00;;;15.30;99.90;;;;;;5046601;28;20387;-84
2022/05/17 07:42:32;;;;;;;10.20;2.63;;;15.20;99.90;;;;;;5046317;28;20403;-83
2022/05/17 07:44:59;;;;;;;11.77;2.75;;;15.10;99.90;;;;;;5046634;28;20384;-84
2022/05/17 07:47:26;;;;;;;14.15;2.95;;;15.10;99.90;;;;;;5047095;28;20376;-83
2022/05/17 07:49:53;;;;;;;13.50;2.53;;;15.10;99.90;;;;;;5051595;28;20391;-83
2022/05/17 07:52:20;;;;;;;33.30;17.67;;;15.10;99.90;;;;;;5058349;28;20840;-84
2022/05/17 07:54:47;;;;;;;11.85;2.70;;;15.10;99.90;;;;;;5089154;28;20455;-85
2022/05/17 07:57:14;;;;;;;10.07;1.97;;;15.10;99.90;;;;;;5089228;28;20925;-84
2022/05/17 07:59:41;;;;;;;11.27;4.00;;;15.20;99.90;;;;;;5088524;28;20437;-84
2022/05/17 08:02:09;;;;;;;94.32;77.00;;;15.10;99.90;;;;;;5088332;28;20399;-83
2022/05/17 08:04:36;;;;;;;21.98;15.38;;;15.00;99.90;;;;;;5088370;28;20369;-85
2022/05/17 08:07:04;;;;;;;13.17;6.30;;;14.90;99.90;;;;;;5088728;28;20380;-84
2022/05/17 08:09:31;;;;;;;23.42;12.13;;;14.80;99.90;;;;;;5088693;28;20373;-83
2022/05/17 08:11:58;;;;;;;10.95;6.68;;;14.70;99.90;;;;;;5091875;28;20372;-84
2022/05/17 08:14:25;;;;;;;14.27;6.18;;;14.60;99.90;;;;;;5092847;28;20378;-85
2022/05/17 08:16:52;;;;;;;9.43;3.70;;;14.60;99.90;;;;;;5091003;28;20454;-83
2022/05/17 08:19:19;;;;;;;26.15;12.38;;;14.50;99.90;;;;;;5091777;28;20402;-84
2022/05/17 08:21:46;;;;;;;17.92;11.48;;;14.50;99.90;;;;;;5094041;28;20881;-84
2022/05/17 08:24:13;;;;;;;12.57;7.93;;;14.60;99.90;;;;;;5092303;28;20365;-85
2022/05/17 08:29:25;;;;;;;11.65;6.20;;;14.40;99.90;;;;;;5093192;28;20372;-83
2022/05/17 08:34:37;;;;;;;16.17;6.32;;;14.20;99.90;;;;;;5092845;28;20401;-84
2022/05/17 08:37:04;;;;;;;33.53;18.17;;;14.10;99.90;;;;;;5092608;28;20411;-83
2022/05/17 08:39:32;;;;;;;24.45;12.98;;;14.10;99.90;;;;;;5092361;28;20364;-84
2022/05/17 08:42:31;;;;;;;25.52;11.35;;;14.00;99.90;;;;;;5092024;28;20400;-86
2022/05/17 08:45:05;;;;;;;13.80;6.80;;;14.00;99.90;;;;;;5090524;28;20376;-82
2022/05/17 08:47:52;;;;;;;13.40;6.70;;;13.90;99.90;;;;;;5091359;28;20384;-84
2022/05/17 08:50:30;;;;;;;19.05;8.00;;;13.80;99.90;;;;;;5091607;28;20384;-84
2022/05/17 08:52:57;;;;;;;14.70;6.60;;;13.70;99.90;;;;;;5091764;28;20765;-84
2022/05/17 08:55:32;;;;;;;11.90;5.82;;;13.60;99.90;;;;;;5091951;28;20361;-85
2022/05/17 08:58:30;;;;;;;8.03;4.40;;;13.50;99.90;;;;;;5092740;28;20972;-83
2022/05/17 09:01:10;;;;;;;7.78;3.92;;;13.50;99.90;;;;;;5049622;28;20399;-81
2022/05/17 09:04:02;;;;;;;8.98;3.30;;;13.30;99.90;;;;;;5049609;28;20376;-83
2022/05/17 09:07:08;;;;;;;7.63;3.20;;;13.30;99.90;;;;;;5049669;28;20828;-82
2022/05/17 09:09:53;;;;;;;6.80;2.70;;;13.20;99.90;;;;;;5034970;28;20372;-82
2022/05/17 09:12:42;;;;;;;8.38;2.90;;;13.20;99.90;;;;;;5049584;28;20384;-84
2022/05/17 09:15:12;;;;;;;6.85;2.35;;;13.10;99.90;;;;;;5049489;28;20437;-82
2022/05/17 09:17:39;;;;;;;8.20;2.10;;;13.10;99.90;;;;;;5046318;28;20391;-81
2022/05/17 09:20:09;;;;;;;6.22;2.10;;;13.00;99.90;;;;;;5049046;28;20364;-82
2022/05/17 09:22:37;;;;;;;6.47;2.15;;;13.00;99.90;;;;;;5048162;28;20884;-81
2022/05/17 09:25:22;;;;;;;8.65;2.47;;;13.00;99.90;;;;;;5049997;28;20387;-83
2022/05/17 09:27:52;;;;;;;9.02;2.13;;;13.00;99.90;;;;;;5050312;28;20372;-86
2022/05/17 09:30:32;;;;;;;7.55;1.70;;;13.00;99.90;;;;;;5050255;28;20499;-86
2022/05/17 09:33:09;;;;;;;9.85;2.15;;;13.20;99.90;;;;;;5051667;28;20720;-86
2022/05/17 09:35:44;;;;;;;9.02;2.45;;;13.30;99.90;;;;;;5050693;28;20372;-86
2022/05/17 09:38:13;;;;;;;16.70;5.95;;;13.30;99.90;;;;;;5088362;28;20379;-84
2022/05/17 09:40:41;;;;;;;11.48;5.15;;;13.20;99.90;;;;;;5096259;28;20389;-86
2022/05/17 09:43:12;;;;;;;8.63;4.07;;;13.10;99.90;;;;;;5092940;28;20408;-86
2022/05/17 09:46:00;;;;;;;8.73;4.00;;;12.90;99.90;;;;;;5092343;28;20895;-87
2022/05/17 09:54:38;;;;;;;7.95;3.40;;;12.50;99.90;;;;;;5069975;28;20770;-84
2022/05/17 09:57:19;;;;;;;9.20;2.60;;;12.50;99.90;;;;;;5053472;28;20885;-85
2022/05/17 09:59:48;;;;;;;7.68;2.55;;;12.60;99.90;;;;;;5069375;28;20378;-85
2022/05/17 10:02:32;;;;;;;14.57;8.70;;;12.60;99.90;;;;;;5069626;28;20406;-85
2022/05/17 10:05:10;;;;;;;8.70;5.40;;;12.60;99.90;;;;;;5069859;28;20762;-83
2022/05/17 10:07:38;;;;;;;6.83;4.23;;;12.50;99.90;;;;;;5069766;28;20453;-86
2022/05/17 10:10:29;;;;;;;6.30;3.30;;;12.50;99.90;;;;;;5052877;28;20375;-84
2022/05/17 10:13:03;;;;;;;6.75;3.30;;;12.50;99.90;;;;;;5068869;28;20397;-83
2022/05/17 10:15:33;;;;;;;6.27;3.00;;;12.40;99.90;;;;;;5069267;28;20379;-84
2022/05/17 10:18:09;;;;;;;4.72;2.42;;;12.40;99.90;;;;;;5069140;28;20430;-86
2022/05/17 10:20:43;;;;;;;5.88;2.40;;;12.30;99.90;;;;;;5051904;28;20400;-84
2022/05/17 10:23:35;;;;;;;3.83;1.83;;;12.30;99.90;;;;;;5069433;28;20389;-85
2022/05/17 10:26:15;;;;;;;7.18;2.00;;;12.20;99.90;;;;;;5069340;28;20378;-84
2022/05/17 10:28:52;;;;;;;5.50;1.90;;;12.20;99.90;;;;;;5082628;28;20361;-82
2022/05/17 10:31:21;;;;;;;2.58;1.40;;;12.20;99.90;;;;;;5090375;28;20400;-84
2022/05/17 10:34:18;;;;;;;4.60;1.70;;;12.10;99.90;;;;;;5090793;28;20856;-85
2022/05/17 10:36:49;;;;;;;3.75;1.60;;;12.10;99.90;;;;;;5091418;28;20750;-85
2022/05/17 10:39:50;;;;;;;3.10;1.38;;;12.00;99.90;;;;;;5090823;28;20925;-84
2022/05/17 10:42:20;;;;;;;3.70;1.40;;;12.00;99.90;;;;;;5090732;28;20539;-84
2022/05/17 10:44:53;;;;;;;2.35;1.48;;;11.90;99.90;;;;;;5090891;28;20835;-86
2022/05/17 10:47:36;;;;;;;3.65;1.50;;;11.80;99.90;;;;;;5090822;28;20400;-86
2022/05/17 10:50:11;;;;;;;4.63;1.30;;;11.70;99.90;;;;;;5090561;28;20372;-86
2022/05/17 10:52:44;;;;;;;2.60;1.23;;;11.70;99.90;;;;;;5093451;28;20371;-85
2022/05/17 10:55:24;;;;;;;3.08;1.30;;;11.70;99.90;;;;;;5091162;28;20836;-84
2022/05/17 10:57:57;;;;;;;3.92;1.50;;;11.60;99.90;;;;;;5090490;28;20365;-84
2022/05/17 11:00:42;;;;;;;3.95;1.33;;;11.60;99.90;;;;;;5089901;28;20411;-82
2022/05/17 11:03:18;;;;;;;4.35;1.23;;;11.50;99.90;;;;;;5093117;28;20404;-84
2022/05/17 11:05:53;;;;;;;3.15;1.38;;;11.50;99.90;;;;;;5091548;28;20376;-84
2022/05/17 11:09:10;;;;;;;2.85;1.30;;;11.50;99.90;;;;;;5090749;28;20369;-84
2022/05/17 11:11:45;;;;;;;4.35;1.55;;;11.50;99.90;;;;;;5048339;28;20379;-85
2022/05/17 11:14:39;;;;;;;3.58;1.83;;;11.40;99.90;;;;;;5048526;28;20470;-83
2022/05/17 11:17:30;;;;;;;4.97;1.80;;;11.30;99.90;;;;;;5048128;28;20383;-83
2022/05/17 11:20:09;;;;;;;4.45;2.30;;;11.30;99.90;;;;;;5048391;28;20372;-83
2022/05/17 11:22:51;;;;;;;5.00;2.20;;;11.20;99.90;;;;;;5048235;28;20403;-85
2022/05/17 11:25:21;;;;;;;5.40;2.10;;;11.20;99.90;;;;;;5047595;28;20372;-83
2022/05/17 11:28:38;;;;;;;4.00;2.27;;;11.20;99.90;;;;;;5047619;28;20414;-84
2022/05/17 11:31:42;;;;;;;6.97;2.50;;;11.10;99.90;;;;;;5007620;28;20431;-83
2022/05/17 11:34:26;;;;;;;4.83;2.40;;;11.00;99.90;;;;;;4930250;29;20489;-83
2022/05/17 11:36:58;;;;;;;5.22;2.38;;;11.00;99.90;;;;;;4929888;29;20400;-83
2022/05/17 11:39:46;;;;;;;6.10;2.40;;;11.00;99.90;;;;;;4930480;29;20462;-84
2022/05/17 11:42:29;;;;;;;6.88;2.60;;;10.90;99.90;;;;;;4947650;28;20414;-84
2022/05/17 11:45:17;;;;;;;5.20;2.60;;;10.90;99.90;;;;;;4953005;28;20505;-85
2022/05/17 11:47:44;;;;;;;8.38;4.40;;;10.80;99.90;;;;;;4975786;28;20483;-84
2022/05/17 11:50:31;;;;;;;7.65;3.80;;;10.80;99.90;;;;;;4974893;28;20386;-86
2022/05/17 11:53:25;;;;;;;6.53;4.20;;;10.70;99.90;;;;;;4898424;29;20497;-84
2022/05/17 11:56:25;;;;;;;9.40;4.70;;;10.70;99.90;;;;;;4898060;29;20384;-84
2022/05/17 11:58:58;;;;;;;8.68;5.18;;;10.70;99.90;;;;;;4898205;29;20390;-85
2022/05/17 12:01:31;;;;;;;7.03;4.13;;;10.70;99.90;;;;;;4898136;29;20417;-84
2022/05/17 12:04:02;;;;;;;11.18;5.30;;;10.60;99.90;;;;;;4897860;29;20491;-84
2022/05/17 12:06:51;;;;;;;9.18;4.93;;;10.60;99.90;;;;;;4906614;29;20443;-83
2022/05/17 12:09:21;;;;;;;10.88;4.65;;;10.60;99.90;;;;;;4904685;29;20813;-83
2022/05/17 12:12:09;;;;;;;9.00;4.28;;;10.50;99.90;;;;;;4987295;28;20377;-84
2022/05/17 12:15:09;;;;;;;10.63;4.15;;;10.50;99.90;;;;;;5006556;28;20773;-85
2022/05/17 12:17:46;;;;;;;8.45;3.70;;;10.50;99.90;;;;;;5006640;28;20381;-85
2022/05/17 12:20:38;;;;;;;5.28;3.05;;;10.50;99.90;;;;;;5006731;28;20377;-86
2022/05/17 12:23:42;;;;;;;7.60;2.88;;;10.50;99.90;;;;;;5001673;28;20926;-84
2022/05/17 12:26:15;;;;;;;7.10;2.95;;;10.40;99.90;;;;;;4996056;28;20967;-85
2022/05/17 12:28:51;;;;;;;5.90;2.50;;;10.40;99.90;;;;;;4995296;28;20385;-84
2022/05/17 12:31:28;;;;;;;8.65;2.65;;;10.40;99.90;;;;;;5096434;28;20398;-84
2022/05/17 12:33:56;;;;;;;8.10;2.47;;;10.40;99.90;;;;;;5095524;28;20387;-86
2022/05/17 12:36:26;;;;;;;6.78;2.35;;;10.40;99.90;;;;;;5095474;28;20382;-84
2022/05/17 12:44:47;;;;;;;4.23;2.10;;;10.20;99.90;;;;;;5095543;28;20399;-85
2022/05/17 12:47:35;;;;;;;6.88;2.88;;;10.10;99.90;;;;;;5095232;28;20387;-82
2022/05/17 12:50:02;;;;;;;5.75;2.60;;;10.20;99.90;;;;;;5095213;28;20365;-85
2022/05/17 12:52:35;;;;;;;6.10;1.90;;;10.10;99.90;;;;;;5095039;28;20422;-86
2022/05/17 12:55:27;;;;;;;4.13;1.70;;;10.10;99.90;;;;;;5095230;28;20461;-83
2022/05/17 12:57:54;;;;;;;5.68;1.75;;;10.10;99.90;;;;;;5091764;28;20392;-84
2022/05/17 13:00:29;;;;;;;3.75;1.70;;;10.00;99.90;;;;;;5091697;28;20377;-83
2022/05/17 13:02:59;;;;;;;7.80;1.92;;;10.00;99.90;;;;;;5091444;28;20873;-84
2022/05/17 13:05:41;;;;;;;6.00;1.80;;;10.00;99.90;;;;;;5091424;28;20434;-84
2022/05/17 13:08:11;;;;;;;4.50;1.90;;;10.00;99.90;;;;;;5091316;28;20426;-84
2022/05/17 13:10:41;;;;;;;5.68;2.03;;;9.90;99.90;;;;;;5091508;28;20368;-84
2022/05/17 13:13:21;;;;;;;5.60;1.75;;;9.90;99.90;;;;;;5091508;28;20372;-83
2022/05/17 13:15:53;;;;;;;4.38;1.75;;;9.80;99.90;;;;;;5089976;28;20470;-82
2022/05/17 13:18:22;;;;;;;4.03;1.60;;;9.80;99.90;;;;;;5091461;28;20376;-84
2022/05/17 13:20:50;;;;;;;3.72;1.63;;;9.80;99.90;;;;;;5091046;28;20373;-83
2022/05/17 13:23:21;;;;;;;3.92;2.13;;;9.80;99.90;;;;;;5091160;28;20491;-82
2022/05/17 13:25:51;;;;;;;4.57;2.25;;;9.70;99.90;;;;;;5091573;28;20369;-84
2022/05/17 13:28:30;;;;;;;5.25;2.10;;;9.70;99.90;;;;;;5091118;28;20399;-83
2022/05/17 13:31:26;;;;;;;4.43;2.40;;;9.70;99.90;;;;;;5090871;28;20396;-86
2022/05/17 13:34:00;;;;;;;3.50;2.20;;;9.60;99.90;;;;;;5089900;28;20376;-83
2022/05/17 13:36:40;;;;;;;4.40;2.20;;;9.60;99.90;;;;;;5091747;28;20892;-84